Time;durP1;ratioP1;P1;durP2;ratioP2;P2;SDS_P1;SDS_P2;PMS_P1;PMS_P2;Temp;Humidity;BMP_temperature;BMP_pressure;BME280_temperature;BME280_humidity;BME280_pressure;Samples;Min_cycle;Max_cycle;Signal;HPM_P1;HPM_P2
2023/10/16 00:00:50;;;;;;;;;;;;;;;22.06;46.06;100450.66;7391817;19;1399;-43
2023/10/16 00:03:19;;;;;;;;;;;;;;;22.13;46.02;100450.88;7394686;19;1878;-43
2023/10/16 00:05:49;;;;;;;;;;;;;;;22.10;46.00;100451.19;7390849;19;1775;-42
2023/10/16 00:08:17;;;;;;;;;;;;;;;22.10;45.88;100456.56;7377118;19;1532;-42
2023/10/16 00:10:55;;;;;;;;;;;;;;;22.07;45.99;100463.13;7392893;19;1479;-43
2023/10/16 00:13:29;;;;;;;;;;;;;;;22.02;46.25;100460.06;7392739;19;1897;-43
2023/10/16 00:15:58;;;;;;;;;;;;;;;21.98;46.12;100458.72;7392286;19;1968;-43
2023/10/16 00:18:24;;;;;;;;;;;;;;;21.84;46.11;100442.19;7391227;19;1845;-43
2023/10/16 00:20:55;;;;;;;;;;;;;;;21.88;46.10;100455.31;7391911;19;1483;-43
2023/10/16 00:23:25;;;;;;;;;;;;;;;21.87;46.13;100451.78;7392639;19;1531;-43
2023/10/16 00:25:54;;;;;;;;;;;;;;;21.87;46.02;100445.56;7392427;19;1821;-43
2023/10/16 00:28:26;;;;;;;;;;;;;;;21.80;45.85;100440.78;7391042;19;1807;-43
2023/10/16 00:30:55;;;;;;;;;;;;;;;21.78;45.90;100458.97;7391909;19;1583;-43
2023/10/16 00:33:24;;;;;;;;;;;;;;;21.70;46.25;100452.72;7393054;19;1568;-42
2023/10/16 00:35:52;;;;;;;;;;;;;;;21.65;45.84;100453.19;7390562;19;1547;-43
2023/10/16 00:38:22;;;;;;;;;;;;;;;21.70;46.11;100458.91;7389104;19;1852;-43
2023/10/16 00:41:15;;;;;;;;;;;;;;;21.74;46.29;100462.97;7391705;19;1512;-43
2023/10/16 00:43:45;;;;;;;;;;;;;;;21.65;46.18;100440.56;7390050;19;1666;-42
2023/10/16 00:46:16;;;;;;;;;;;;;;;21.60;46.14;100453.66;7390831;19;1456;-43
2023/10/16 00:48:44;;;;;;;;;;;;;;;21.66;46.17;100465.63;7391476;19;1810;-43
2023/10/16 00:51:13;;;;;;;;;;;;;;;21.62;46.02;100465.09;7390960;19;1566;-42
2023/10/16 00:53:42;;;;;;;;;;;;;;;21.71;45.74;100463.31;7390692;19;1646;-43
2023/10/16 00:56:13;;;;;;;;;;;;;;;21.65;46.07;100483.63;7391024;19;1493;-43
2023/10/16 00:58:46;;;;;;;;;;;;;;;21.62;46.11;100486.63;7389009;19;1863;-43
2023/10/16 01:01:18;;;;;;;;;;;;;;;21.60;46.21;100494.03;7390675;19;1605;-43
2023/10/16 01:03:48;;;;;;;;;;;;;;;21.66;46.01;100495.22;7393659;19;1471;-43
2023/10/16 01:06:36;;;;;;;;;;;;;;;21.56;46.16;100487.28;7391267;19;1326;-42
2023/10/16 01:09:07;;;;;;;;;;;;;;;21.56;46.36;100502.56;7376607;19;1498;-42
2023/10/16 01:11:37;;;;;;;;;;;;;;;21.56;46.36;100491.81;7390821;19;1511;-43
2023/10/16 01:14:08;;;;;;;;;;;;;;;21.63;46.51;100500.94;7389610;19;1402;-43
2023/10/16 01:16:36;;;;;;;;;;;;;;;21.55;46.67;100506.28;7390121;19;1493;-42
2023/10/16 01:19:06;;;;;;;;;;;;;;;21.55;46.57;100522.44;7388426;19;1850;-43
2023/10/16 01:21:32;;;;;;;;;;;;;;;21.52;47.14;100533.50;7390715;19;1443;-43
2023/10/16 01:24:11;;;;;;;;;;;;;;;21.50;47.31;100522.03;7390714;19;1897;-43
2023/10/16 01:26:40;;;;;;;;;;;;;;;21.44;47.23;100510.91;7391197;19;1949;-43
2023/10/16 01:29:09;;;;;;;;;;;;;;;21.48;47.60;100532.13;7390011;19;1484;-44
2023/10/16 01:31:37;;;;;;;;;;;;;;;21.58;47.48;100527.47;7389112;19;1824;-43
2023/10/16 01:34:10;;;;;;;;;;;;;;;21.56;47.59;100522.25;7388922;19;1458;-43
2023/10/16 01:36:45;;;;;;;;;;;;;;;21.53;47.79;100522.59;7389404;19;1449;-43
2023/10/16 01:41:56;;;;;;;;;;;;;;;21.63;47.63;100535.94;7386997;19;2045;-43
2023/10/16 01:44:25;;;;;;;;;;;;;;;21.65;47.49;100523.16;7386617;19;1480;-43
2023/10/16 01:46:53;;;;;;;;;;;;;;;21.63;47.60;100535.94;7390034;19;1557;-43
2023/10/16 01:49:24;;;;;;;;;;;;;;;21.60;47.87;100553.22;7389294;19;1968;-43
2023/10/16 01:51:52;;;;;;;;;;;;;;;21.59;47.90;100562.31;7389126;19;1471;-43
2023/10/16 01:54:24;;;;;;;;;;;;;;;21.58;47.97;100551.69;7389202;19;1472;-47
2023/10/16 01:56:53;;;;;;;;;;;;;;;21.63;47.79;100563.69;7397446;19;1496;-43
2023/10/16 01:59:22;;;;;;;;;;;;;;;21.62;47.61;100563.84;7394642;19;1836;-43
2023/10/16 02:01:50;;;;;;;;;;;;;;;21.59;47.69;100577.63;7396712;19;1501;-43
2023/10/16 02:04:20;;;;;;;;;;;;;;;21.57;47.62;100572.38;7396258;19;1559;-43
2023/10/16 02:06:48;;;;;;;;;;;;;;;21.56;47.80;100583.31;7396597;19;1539;-43
2023/10/16 02:09:23;;;;;;;;;;;;;;;21.54;47.65;100586.13;7383021;19;1337;-43
2023/10/16 02:11:54;;;;;;;;;;;;;;;21.58;47.69;100608.19;7396313;19;1408;-43
2023/10/16 02:14:24;;;;;;;;;;;;;;;21.50;47.60;100594.69;7395477;19;1520;-43
2023/10/16 02:16:52;;;;;;;;;;;;;;;21.50;47.51;100579.38;7395447;19;1460;-43
2023/10/16 02:19:20;;;;;;;;;;;;;;;21.54;47.42;100585.31;7395088;19;1862;-43
2023/10/16 02:21:50;;;;;;;;;;;;;;;21.49;47.36;100584.91;7397662;19;1412;-42
2023/10/16 02:24:18;;;;;;;;;;;;;;;21.38;47.47;100576.06;7395441;19;1459;-43
2023/10/16 02:27:02;;;;;;;;;;;;;;;21.39;47.32;100576.94;7397181;19;1393;-43
2023/10/16 02:29:34;;;;;;;;;;;;;;;21.45;47.15;100571.78;7394956;19;1206;-43
2023/10/16 02:32:03;;;;;;;;;;;;;;;21.48;47.16;100580.56;7395411;19;1577;-43
2023/10/16 02:34:33;;;;;;;;;;;;;;;21.47;47.01;100595.84;7397425;19;1477;-42
2023/10/16 02:37:06;;;;;;;;;;;;;;;21.48;47.09;100604.75;7395162;19;1492;-43
2023/10/16 02:39:41;;;;;;;;;;;;;;;21.44;46.87;100596.16;7394344;19;1840;-42
2023/10/16 02:42:14;;;;;;;;;;;;;;;21.41;46.95;100593.75;7393620;19;1510;-42
2023/10/16 02:44:45;;;;;;;;;;;;;;;21.48;46.78;100607.44;7394628;19;1540;-43
2023/10/16 02:47:21;;;;;;;;;;;;;;;21.44;46.77;100601.53;7395412;19;1540;-43
2023/10/16 02:49:50;;;;;;;;;;;;;;;21.50;46.72;100608.97;7394568;19;1499;-42
2023/10/16 02:52:19;;;;;;;;;;;;;;;21.50;46.40;100611.66;7393848;19;1437;-43
2023/10/16 02:54:48;;;;;;;;;;;;;;;21.49;46.41;100609.13;7390164;19;1794;-43
2023/10/16 02:57:17;;;;;;;;;;;;;;;21.57;46.20;100628.88;7393667;19;1482;-43
2023/10/16 02:59:48;;;;;;;;;;;;;;;21.55;46.33;100624.69;7392487;19;1841;-42
2023/10/16 03:02:17;;;;;;;;;;;;;;;21.51;46.16;100621.44;7392683;19;1497;-42
2023/10/16 03:04:48;;;;;;;;;;;;;;;21.25;46.38;100587.22;7388773;19;1514;-43
2023/10/16 03:07:20;;;;;;;;;;;;;;;21.50;45.93;100629.66;7393809;19;1448;-43
2023/10/16 03:12:29;;;;;;;;;;;;;;;21.42;45.97;100625.84;7394863;19;1481;-43
2023/10/16 03:15:01;;;;;;;;;;;;;;;21.47;45.95;100635.34;7393959;19;1578;-43
2023/10/16 03:17:34;;;;;;;;;;;;;;;21.50;45.86;100632.34;7392759;19;1413;-43
2023/10/16 03:20:08;;;;;;;;;;;;;;;21.48;45.67;100640.56;7392379;19;1849;-42
2023/10/16 03:22:37;;;;;;;;;;;;;;;21.43;45.75;100643.75;7393582;19;1386;-43
2023/10/16 03:25:24;;;;;;;;;;;;;;;21.37;45.67;100635.41;7394129;19;1474;-43
2023/10/16 03:27:55;;;;;;;;;;;;;;;21.37;45.64;100640.81;7392365;19;1449;-43
2023/10/16 03:30:27;;;;;;;;;;;;;;;21.31;45.48;100628.81;7393394;19;1626;-42
2023/10/16 03:32:55;;;;;;;;;;;;;;;21.36;45.22;100650.69;7394790;19;1242;-43
2023/10/16 03:35:26;;;;;;;;;;;;;;;21.35;45.32;100646.31;7394004;19;1707;-43
2023/10/16 03:37:54;;;;;;;;;;;;;;;21.40;44.95;100649.38;7392843;19;1843;-43
2023/10/16 03:40:24;;;;;;;;;;;;;;;21.40;44.87;100649.38;7388932;19;1854;-42
2023/10/16 03:42:53;;;;;;;;;;;;;;;21.46;44.91;100656.03;7392692;19;1499;-43
2023/10/16 03:45:22;;;;;;;;;;;;;;;21.51;45.12;100639.44;7391055;19;1504;-43
2023/10/16 03:47:57;;;;;;;;;;;;;;;21.82;45.24;100651.44;7279570;19;14297;-43
2023/10/16 03:50:34;;;;;;;;;;;;;;;22.08;45.24;100652.47;7389182;19;1377;-43
2023/10/16 03:53:03;;;;;;;;;;;;;;;22.11;46.38;100663.78;7392543;19;1400;-43
2023/10/16 03:55:32;;;;;;;;;;;;;;;22.12;46.98;100657.38;7395131;19;1479;-43
2023/10/16 03:58:00;;;;;;;;;;;;;;;22.19;47.47;100671.06;7392314;19;1985;-43
2023/10/16 04:00:43;;;;;;;;;;;;;;;22.05;48.04;100665.25;7391917;19;1858;-43
2023/10/16 04:03:15;;;;;;;;;;;;;;;22.08;48.18;100657.84;7393382;19;1423;-43
2023/10/16 04:05:48;;;;;;;;;;;;;;;22.00;47.55;100672.09;7392287;19;1458;-43
2023/10/16 04:08:17;;;;;;;;;;;;;;;22.13;47.84;100688.69;7393922;19;1726;-43
2023/10/16 04:10:47;;;;;;;;;;;;;;;22.13;48.33;100693.25;7378186;19;1469;-43
2023/10/16 04:13:17;;;;;;;;;;;;;;;22.11;48.46;100693.41;7392175;19;1907;-43
2023/10/16 04:18:33;;;;;;;;;;;;;;;22.13;48.35;100704.84;7390835;19;1772;-43
2023/10/16 04:23:55;;;;;;;;;;;;;;;22.18;48.42;100691.78;7393181;19;1626;-43
2023/10/16 04:31:55;;;;;;;;;;;;;;;22.32;47.68;100684.13;7393323;19;1776;-43
2023/10/16 04:34:25;;;;;;;;;;;;;;;22.33;48.15;100696.59;7392338;19;1477;-43
2023/10/16 04:37:24;;;;;;;;;;;;;;;22.32;47.85;100708.38;7392470;19;1459;-43
2023/10/16 04:47:56;;;;;;;;;;;;;;;22.36;47.90;100729.47;7390911;19;2042;-43
2023/10/16 04:50:29;;;;;;;;;;;;;;;22.38;47.73;100738.22;7392083;19;2043;-43
2023/10/16 04:53:11;;;;;;;;;;;;;;;22.34;47.98;100750.31;7391922;19;1586;-43
2023/10/16 04:55:53;;;;;;;;;;;;;;;22.40;47.91;100746.13;7391124;19;1714;-43
2023/10/16 04:58:47;;;;;;;;;;;;;;;22.40;47.60;100754.22;7393292;19;1630;-43
2023/10/16 05:06:49;;;;;;;;;;;;;;;22.43;47.79;100783.56;7391841;19;1800;-43
2023/10/16 05:17:59;;;;;;;;;;;;;;;22.43;47.58;100797.03;7388389;19;2213;-43
2023/10/16 06:14:36;;;;;;;;;;;;;;;22.23;46.55;100969.56;7394778;19;1495;-50
2023/10/16 06:17:13;;;;;;;;;;;;;;;22.22;46.57;100967.91;7395637;19;1491;-46
2023/10/16 06:19:43;;;;;;;;;;;;;;;22.27;46.61;101001.66;7394425;19;1849;-43
2023/10/16 06:22:11;;;;;;;;;;;;;;;22.26;46.62;101000.78;7393620;19;1468;-44
2023/10/16 06:24:44;;;;;;;;;;;;;;;22.27;46.33;101013.25;7396350;19;1611;-43
2023/10/16 06:27:19;;;;;;;;;;;;;;;22.23;46.75;101001.91;7395265;19;1455;-43
2023/10/16 06:29:50;;;;;;;;;;;;;;;22.24;46.46;101024.31;7393837;19;1472;-43
2023/10/16 06:32:21;;;;;;;;;;;;;;;22.29;46.37;101021.19;7395617;19;1541;-43
2023/10/16 06:34:49;;;;;;;;;;;;;;;22.28;46.54;101027.56;7396390;19;1555;-43
2023/10/16 06:37:21;;;;;;;;;;;;;;;22.24;46.43;101030.59;7394883;19;1807;-43
2023/10/16 06:39:54;;;;;;;;;;;;;;;22.22;46.21;101037.94;7393545;19;1849;-43
2023/10/16 06:42:25;;;;;;;;;;;;;;;22.28;46.13;101052.66;7396338;19;1868;-43
2023/10/16 06:44:54;;;;;;;;;;;;;;;22.29;46.10;101061.63;7394573;19;1655;-43
2023/10/16 06:47:34;;;;;;;;;;;;;;;22.32;46.09;101053.22;7393276;19;1591;-43
2023/10/16 06:50:09;;;;;;;;;;;;;;;22.33;46.05;101060.31;7393212;19;1408;-43
2023/10/16 06:52:45;;;;;;;;;;;;;;;22.54;45.72;101070.81;7394422;19;1659;-43
2023/10/16 06:55:13;;;;;;;;;;;;;;;22.72;45.54;101068.13;7394455;19;1575;-43
2023/10/16 06:57:44;;;;;;;;;;;;;;;22.74;45.71;101066.13;7393603;19;1922;-44
2023/10/16 07:00:22;;;;;;;;;;;;;;;22.54;45.66;101077.06;7394224;19;1846;-43
2023/10/16 07:02:54;;;;;;;;;;;;;;;22.68;45.36;101072.13;7394799;19;1729;-43
2023/10/16 07:05:24;;;;;;;;;;;;;;;22.50;46.06;101086.47;7393729;19;1779;-43
2023/10/16 07:07:56;;;;;;;;;;;;;;;22.45;46.88;101096.81;7393167;19;1388;-43
2023/10/16 07:10:24;;;;;;;;;;;;;;;22.72;46.18;101092.41;7381088;19;1605;-43
2023/10/16 07:12:59;;;;;;;;;;;;;;;22.67;45.65;101111.72;7394667;19;1741;-43
2023/10/16 07:15:29;;;;;;;;;;;;;;;22.64;45.44;101110.19;7394980;19;1724;-43
2023/10/16 07:18:02;;;;;;;;;;;;;;;22.57;45.49;101108.25;7393241;19;1768;-43
2023/10/16 07:20:33;;;;;;;;;;;;;;;22.63;45.52;101102.25;7392727;19;1846;-43
2023/10/16 07:23:10;;;;;;;;;;;;;;;22.75;45.20;101105.59;7392879;19;1717;-43
2023/10/16 07:25:54;;;;;;;;;;;;;;;22.68;45.15;101112.56;7393450;19;1562;-43
2023/10/16 07:28:26;;;;;;;;;;;;;;;22.67;45.29;101117.13;7393583;19;1810;-43
2023/10/16 07:30:56;;;;;;;;;;;;;;;22.69;45.20;101130.47;7393084;19;1599;-43
2023/10/16 07:33:25;;;;;;;;;;;;;;;22.67;45.42;101140.53;7394211;19;1547;-43
2023/10/16 07:35:54;;;;;;;;;;;;;;;22.57;45.44;101138.75;7392228;19;1546;-43
2023/10/16 07:38:23;;;;;;;;;;;;;;;22.54;45.52;101157.94;7393827;19;1492;-43
2023/10/16 07:40:54;;;;;;;;;;;;;;;22.54;45.79;101143.56;7392213;19;1861;-43
2023/10/16 07:43:26;;;;;;;;;;;;;;;22.52;45.53;101157.22;7394419;19;1483;-43
2023/10/16 07:46:08;;;;;;;;;;;;;;;22.48;45.82;101150.41;7393681;19;1526;-43
2023/10/16 07:48:37;;;;;;;;;;;;;;;22.51;45.61;101160.91;7391803;19;1380;-43
2023/10/16 07:51:06;;;;;;;;;;;;;;;22.47;45.58;101162.19;7391722;19;1349;-43
2023/10/16 07:53:35;;;;;;;;;;;;;;;22.46;45.71;101168.56;7392700;19;1495;-43
2023/10/16 07:56:19;;;;;;;;;;;;;;;22.49;45.71;101164.75;7392002;19;1496;-43
2023/10/16 07:58:54;;;;;;;;;;;;;;;22.43;45.74;101164.34;7393175;19;1557;-52
2023/10/16 08:01:36;;;;;;;;;;;;;;;22.44;45.74;101173.25;7391748;19;1863;-43
2023/10/16 08:04:05;;;;;;;;;;;;;;;22.46;45.86;101179.34;7393855;19;1497;-43
2023/10/16 08:06:38;;;;;;;;;;;;;;;22.45;46.07;101174.97;7393105;19;1899;-43
2023/10/16 08:09:48;;;;;;;;;;;;;;;22.44;45.97;101179.53;7391170;19;1556;-44
2023/10/16 08:12:18;;;;;;;;;;;;;;;22.44;45.95;101170.56;7378894;19;1709;-43
2023/10/16 08:14:51;;;;;;;;;;;;;;;22.41;46.07;101200.53;7395551;19;1537;-43
2023/10/16 08:17:23;;;;;;;;;;;;;;;22.37;46.07;101212.59;7393044;19;1443;-43
2023/10/16 08:19:52;;;;;;;;;;;;;;;22.41;46.29;101197.81;7392144;19;1849;-43
2023/10/16 08:22:26;;;;;;;;;;;;;;;22.38;46.32;101203.50;7390379;19;1725;-43
2023/10/16 08:25:00;;;;;;;;;;;;;;;22.31;46.63;101216.72;7391126;19;1402;-43
2023/10/16 08:33:06;;;;;;;;;;;;;;;22.18;46.56;101241.25;7389610;19;1527;-46
2023/10/16 08:35:38;;;;;;;;;;;;;;;22.19;46.70;101244.81;7391463;19;1499;-42
2023/10/16 08:38:11;;;;;;;;;;;;;;;22.18;46.45;101238.56;7388582;19;1433;-41
2023/10/16 08:40:41;;;;;;;;;;;;;;;22.20;46.48;101258.13;7390801;19;1878;-41
2023/10/16 08:43:10;;;;;;;;;;;;;;;22.32;46.24;101268.75;7390331;19;1755;-41
2023/10/16 08:45:48;;;;;;;;;;;;;;;22.35;46.15;101255.00;7391745;19;1811;-41
2023/10/16 08:48:17;;;;;;;;;;;;;;;22.37;45.76;101250.31;7392376;19;1817;-42
2023/10/16 08:50:52;;;;;;;;;;;;;;;22.30;45.85;101255.41;7390280;19;1652;-42
2023/10/16 08:53:33;;;;;;;;;;;;;;;22.26;45.78;101270.19;7388937;19;1447;-42
2023/10/16 08:56:03;;;;;;;;;;;;;;;22.24;45.83;101273.03;7393216;19;1588;-42
2023/10/16 08:58:34;;;;;;;;;;;;;;;22.21;45.69;101284.06;7387678;19;1505;-41
2023/10/16 09:01:07;;;;;;;;;;;;;;;22.14;45.92;101277.53;7388665;19;1843;-42
2023/10/16 09:03:39;;;;;;;;;;;;;;;22.23;45.67;101271.28;7392629;19;1180;-41
2023/10/16 09:06:07;;;;;;;;;;;;;;;22.29;45.56;101275.28;7398873;19;1572;-41
2023/10/16 09:08:36;;;;;;;;;;;;;;;22.26;45.72;101272.03;7397864;19;1754;-41
2023/10/16 09:11:06;;;;;;;;;;;;;;;22.29;45.64;101282.53;7385622;19;1888;-41
2023/10/16 09:13:35;;;;;;;;;;;;;;;22.27;45.72;101290.75;7398171;19;1253;-41
2023/10/16 09:16:11;;;;;;;;;;;;;;;22.24;45.72;101321.53;7399458;19;1879;-41
2023/10/16 09:18:39;;;;;;;;;;;;;;;22.17;45.79;101297.97;7397481;19;1840;-41
2023/10/16 09:21:13;;;;;;;;;;;;;;;22.15;45.66;101279.25;7395894;19;1879;-41
2023/10/16 09:23:51;;;;;;;;;;;;;;;22.14;45.59;101301.78;7397947;19;1871;-41
2023/10/16 09:26:21;;;;;;;;;;;;;;;22.20;45.74;101298.53;7398008;19;1677;-41
2023/10/16 09:28:53;;;;;;;;;;;;;;;22.18;45.63;101295.13;7399492;19;1784;-41
2023/10/16 09:31:24;;;;;;;;;;;;;;;22.14;45.75;101301.78;7397827;19;1712;-41
2023/10/16 09:33:54;;;;;;;;;;;;;;;22.06;45.90;101296.25;7396860;19;1511;-41
2023/10/16 09:36:23;;;;;;;;;;;;;;;22.14;45.68;101299.09;7396392;19;1526;-41
2023/10/16 09:38:56;;;;;;;;;;;;;;;22.16;45.53;101293.56;7396441;19;2011;-41
2023/10/16 09:44:22;;;;;;;;;;;;;;;22.46;45.70;101316.78;7395253;19;1792;-41
2023/10/16 09:46:56;;;;;;;;;;;;;;;22.74;45.33;101317.75;7395623;19;1794;-41
2023/10/16 09:49:23;;;;;;;;;;;;;;;22.56;44.51;101314.09;7395278;19;1786;-41
2023/10/16 09:51:57;;;;;;;;;;;;;;;22.64;44.06;101300.72;7395983;19;1902;-41
2023/10/16 09:54:29;;;;;;;;;;;;;;;22.46;43.34;101306.00;7394588;19;1781;-41
2023/10/16 09:56:59;;;;;;;;;;;;;;;22.56;42.97;101298.78;7394578;19;1760;-41
2023/10/16 09:59:32;;;;;;;;;;;;;;;22.70;42.28;101310.94;7394415;19;1634;-41
2023/10/16 10:02:08;;;;;;;;;;;;;;;22.40;43.36;101279.66;7392572;19;1837;-41
2023/10/16 10:04:38;;;;;;;;;;;;;;;22.71;43.19;101291.06;7393656;19;1634;-41
2023/10/16 10:07:14;;;;;;;;;;;;;;;22.79;42.78;101287.63;7393909;19;1610;-41
2023/10/16 10:09:45;;;;;;;;;;;;;;;22.88;42.85;101275.09;7393817;19;1661;-41
2023/10/16 10:12:37;;;;;;;;;;;;;;;22.98;42.45;101271.38;7378696;19;1747;-41
2023/10/16 10:15:14;;;;;;;;;;;;;;;22.83;43.29;101272.84;7387444;19;1662;-41
2023/10/16 10:17:46;;;;;;;;;;;;;;;22.77;42.96;101281.53;7393535;19;1559;-41
2023/10/16 10:20:23;;;;;;;;;;;;;;;22.90;42.49;101290.16;7392782;19;1843;-41
2023/10/16 10:22:53;;;;;;;;;;;;;;;22.50;43.26;101245.47;7388143;19;1476;-41
2023/10/16 10:25:38;;;;;;;;;;;;;;;22.81;43.18;101294.56;7388878;19;1442;-42
2023/10/16 10:28:15;;;;;;;;;;;;;;;22.93;42.88;101287.13;7391017;19;1581;-41
2023/10/16 10:30:45;;;;;;;;;;;;;;;23.06;42.75;101277.88;7390677;19;1569;-41
2023/10/16 10:33:36;;;;;;;;;;;;;;;23.10;42.95;101279.28;7391959;19;1462;-41
2023/10/16 10:36:22;;;;;;;;;;;;;;;23.08;43.00;101273.19;7391818;19;1919;-41
2023/10/16 10:38:53;;;;;;;;;;;;;;;23.11;42.86;101279.13;7389820;19;1923;-42
2023/10/16 10:41:22;;;;;;;;;;;;;;;23.09;42.94;101267.63;7388651;19;1859;-41
2023/10/16 10:43:58;;;;;;;;;;;;;;;23.08;43.12;101276.75;7390381;19;1667;-41
2023/10/16 10:46:28;;;;;;;;;;;;;;;23.03;43.15;101266.38;7391363;19;1554;-41
2023/10/16 10:49:00;;;;;;;;;;;;;;;23.06;43.27;101269.78;7391015;19;1342;-41
2023/10/16 10:51:34;;;;;;;;;;;;;;;23.13;43.06;101276.28;7390046;19;1314;-41
2023/10/16 10:54:03;;;;;;;;;;;;;;;23.13;43.16;101270.91;7390130;19;1385;-41
2023/10/16 10:56:50;;;;;;;;;;;;;;;23.11;43.98;101268.34;7389304;19;1491;-39
2023/10/16 10:59:38;;;;;;;;;;;;;;;23.11;45.13;101262.09;7388604;19;1577;-41
2023/10/16 11:02:21;;;;;;;;;;;;;;;23.02;45.88;101267.41;7389128;19;1856;-41
2023/10/16 11:04:54;;;;;;;;;;;;;;;23.03;44.64;101263.69;7391446;19;1788;-39
2023/10/16 11:07:26;;;;;;;;;;;;;;;23.06;44.61;101250.91;7390144;19;1594;-41
2023/10/16 11:09:56;;;;;;;;;;;;;;;23.10;43.75;101268.47;7392266;19;1443;-40
2023/10/16 11:12:30;;;;;;;;;;;;;;;22.96;45.00;101264.41;7376865;19;1619;-41
2023/10/16 11:15:00;;;;;;;;;;;;;;;22.95;44.42;101260.88;7390628;19;1443;-43
2023/10/16 11:17:33;;;;;;;;;;;;;;;23.09;44.70;101269.50;7389442;19;1603;-41
2023/10/16 11:20:27;;;;;;;;;;;;;;;23.12;44.20;101258.38;7389680;19;1474;-41
2023/10/16 11:22:57;;;;;;;;;;;;;;;23.18;44.17;101260.50;7387705;19;2283;-41
2023/10/16 11:25:28;;;;;;;;;;;;;;;23.04;44.96;101269.97;7389869;19;1549;-41
2023/10/16 11:27:57;;;;;;;;;;;;;;;22.96;45.57;101257.19;7389102;19;1448;-41
2023/10/16 11:30:27;;;;;;;;;;;;;;;22.90;45.71;101263.19;7390594;19;1518;-41
2023/10/16 11:32:57;;;;;;;;;;;;;;;22.83;46.86;101270.16;7389574;19;1427;-42
2023/10/16 11:35:34;;;;;;;;;;;;;;;22.98;46.48;101260.59;7390636;19;1535;-41
2023/10/16 11:38:12;;;;;;;;;;;;;;;23.07;46.65;101269.63;7388797;19;1461;-41
2023/10/16 11:40:42;;;;;;;;;;;;;;;22.97;46.91;101242.69;7388723;19;1846;-42
2023/10/16 11:43:12;;;;;;;;;;;;;;;22.84;47.65;101264.63;7389392;19;1589;-42
2023/10/16 11:45:41;;;;;;;;;;;;;;;23.01;46.03;101257.56;7389267;19;1388;-42
2023/10/16 11:48:28;;;;;;;;;;;;;;;23.16;45.46;101246.31;7388469;19;1491;-41
2023/10/16 11:51:06;;;;;;;;;;;;;;;22.93;46.83;101273.66;7391071;19;1685;-41
2023/10/16 11:53:36;;;;;;;;;;;;;;;22.85;47.85;101265.47;7393795;19;1559;-41
2023/10/16 11:56:05;;;;;;;;;;;;;;;22.90;47.65;101262.31;7390693;19;1756;-41
2023/10/16 11:58:33;;;;;;;;;;;;;;;22.77;48.04;101271.59;7392527;19;1540;-41
2023/10/16 12:01:11;;;;;;;;;;;;;;;22.97;47.46;101253.47;7392549;19;1850;-41
2023/10/16 12:03:40;;;;;;;;;;;;;;;23.05;47.46;101265.41;7393647;19;1539;-41
2023/10/16 12:06:13;;;;;;;;;;;;;;;22.97;47.66;101264.25;7391232;19;1829;-41
2023/10/16 12:08:42;;;;;;;;;;;;;;;22.90;47.74;101259.63;7391240;19;1674;-39
2023/10/16 12:11:14;;;;;;;;;;;;;;;22.84;48.02;101258.38;7385584;19;1515;-41
2023/10/16 12:13:42;;;;;;;;;;;;;;;22.70;48.30;101258.84;7391285;19;1553;-41
2023/10/16 12:16:10;;;;;;;;;;;;;;;22.67;48.61;101249.22;7390600;19;1492;-41
2023/10/16 12:18:39;;;;;;;;;;;;;;;22.92;47.60;101266.56;7390870;19;1539;-42
2023/10/16 12:21:08;;;;;;;;;;;;;;;22.96;46.64;101267.97;7388954;19;1847;-42
2023/10/16 12:23:39;;;;;;;;;;;;;;;22.86;47.33;101266.31;7389129;19;1463;-41
2023/10/16 12:26:08;;;;;;;;;;;;;;;22.85;47.07;101265.47;7386774;19;1452;-41
2023/10/16 12:28:36;;;;;;;;;;;;;;;22.85;45.63;101270.84;7387406;19;1570;-41
2023/10/16 12:31:05;;;;;;;;;;;;;;;22.93;44.16;101262.03;7389521;19;1930;-41
2023/10/16 12:33:34;;;;;;;;;;;;;;;23.03;44.31;101269.09;7392885;19;1479;-41
2023/10/16 12:36:07;;;;;;;;;;;;;;;23.09;43.74;101261.41;7390141;19;1545;-41
2023/10/16 12:38:38;;;;;;;;;;;;;;;23.12;45.63;101251.16;7391356;19;1832;-41
2023/10/16 12:41:08;;;;;;;;;;;;;;;23.14;44.17;101269.88;7391313;19;1849;-41
2023/10/16 12:43:36;;;;;;;;;;;;;;;23.16;44.90;101251.72;7390325;19;1494;-41
2023/10/16 12:46:07;;;;;;;;;;;;;;;23.06;46.40;101256.28;7393181;19;1768;-41
2023/10/16 12:48:35;;;;;;;;;;;;;;;23.04;45.94;101259.16;7393088;19;1499;-41
2023/10/16 12:51:07;;;;;;;;;;;;;;;23.02;45.91;101256.63;7393659;19;1718;-41
2023/10/16 12:53:35;;;;;;;;;;;;;;;23.13;45.87;101258.25;7390609;19;1490;-42
2023/10/16 12:56:07;;;;;;;;;;;;;;;23.03;44.39;101252.06;7388189;19;1594;-41
2023/10/16 12:58:36;;;;;;;;;;;;;;;23.05;45.22;101243.81;7389448;19;1728;-41
2023/10/16 13:01:05;;;;;;;;;;;;;;;23.00;46.63;101247.78;7388886;19;1866;-41
2023/10/16 13:03:36;;;;;;;;;;;;;;;22.99;46.89;101246.06;7389476;19;1781;-41
2023/10/16 13:06:05;;;;;;;;;;;;;;;23.07;45.32;101252.63;7387235;19;1847;-42
2023/10/16 13:08:34;;;;;;;;;;;;;;;23.03;44.60;101247.50;7389143;19;1710;-41
2023/10/16 13:11:02;;;;;;;;;;;;;;;23.02;43.93;101256.63;7392274;19;1622;-41
2023/10/16 13:13:33;;;;;;;;;;;;;;;23.03;43.44;101241.28;7379366;19;1007;-41
2023/10/16 13:16:04;;;;;;;;;;;;;;;22.97;44.27;101264.25;7392271;19;1816;-41
2023/10/16 13:18:36;;;;;;;;;;;;;;;22.98;43.40;101262.44;7392576;19;1921;-41
2023/10/16 13:21:07;;;;;;;;;;;;;;;23.00;43.48;101252.34;7389632;19;1856;-41
2023/10/16 13:23:39;;;;;;;;;;;;;;;23.02;43.16;101270.09;7390933;19;1779;-41
2023/10/16 13:26:10;;;;;;;;;;;;;;;22.93;42.97;101252.06;7392084;19;1476;-41
2023/10/16 13:28:42;;;;;;;;;;;;;;;22.87;42.78;101258.06;7393167;19;1633;-41
2023/10/16 13:31:11;;;;;;;;;;;;;;;22.87;43.41;101252.69;7392452;19;1745;-41
2023/10/16 13:33:41;;;;;;;;;;;;;;;22.84;42.57;101258.38;7391763;19;1202;-41
2023/10/16 13:36:11;;;;;;;;;;;;;;;22.89;43.08;101260.63;7391222;19;1852;-41
2023/10/16 13:38:39;;;;;;;;;;;;;;;22.90;41.98;101252.41;7391139;19;1752;-41
2023/10/16 13:41:18;;;;;;;;;;;;;;;22.85;42.49;101249.28;7392160;19;1817;-41
2023/10/16 13:43:49;;;;;;;;;;;;;;;22.81;42.41;101242.50;7393133;19;1570;-41
2023/10/16 13:46:18;;;;;;;;;;;;;;;22.79;42.07;101249.88;7391519;19;1966;-41
2023/10/16 13:48:50;;;;;;;;;;;;;;;22.77;42.04;101259.97;7391543;19;1398;-41
2023/10/16 13:51:19;;;;;;;;;;;;;;;22.75;42.05;101253.88;7398787;19;1472;-42
2023/10/16 13:53:48;;;;;;;;;;;;;;;22.74;41.99;101247.63;7398305;19;1507;-41
2023/10/16 13:56:19;;;;;;;;;;;;;;;22.72;41.68;101248.75;7397857;19;1413;-41
2023/10/16 13:58:51;;;;;;;;;;;;;;;22.71;42.09;101257.88;7398614;19;1396;-41
2023/10/16 14:01:19;;;;;;;;;;;;;;;22.73;42.14;101258.56;7399867;19;1864;-41
2023/10/16 14:03:49;;;;;;;;;;;;;;;22.66;42.15;101261.00;7398786;19;1548;-41
2023/10/16 14:06:22;;;;;;;;;;;;;;;22.62;42.12;101263.16;7399794;19;1768;-41
2023/10/16 14:08:50;;;;;;;;;;;;;;;22.59;42.01;101260.75;7398438;19;1917;-41
2023/10/16 14:11:28;;;;;;;;;;;;;;;22.62;42.59;101263.16;7397864;19;1740;-41
2023/10/16 14:13:59;;;;;;;;;;;;;;;22.58;42.54;101264.44;7382065;19;1631;-41
2023/10/16 14:16:32;;;;;;;;;;;;;;;22.57;42.56;101276.22;7398543;19;1463;-41
2023/10/16 14:19:06;;;;;;;;;;;;;;;22.52;42.66;101259.66;7398390;19;1791;-41
2023/10/16 14:21:34;;;;;;;;;;;;;;;22.47;42.70;101253.84;7397922;19;1855;-41
2023/10/16 14:24:04;;;;;;;;;;;;;;;22.51;42.52;101257.09;7396356;19;1846;-41
2023/10/16 14:26:34;;;;;;;;;;;;;;;22.49;42.42;101251.84;7397048;19;1899;-41
2023/10/16 14:29:05;;;;;;;;;;;;;;;22.50;43.20;101250.84;7398051;19;1661;-41
2023/10/16 14:31:34;;;;;;;;;;;;;;;22.44;43.07;101259.50;7397728;19;1788;-41
2023/10/16 14:34:05;;;;;;;;;;;;;;;22.45;43.64;101277.38;7398439;19;1756;-42
2023/10/16 14:36:34;;;;;;;;;;;;;;;22.45;43.60;101269.31;7397111;19;1858;-42
2023/10/16 14:39:04;;;;;;;;;;;;;;;22.42;43.77;101264.19;7398298;19;1730;-41
2023/10/16 14:41:33;;;;;;;;;;;;;;;22.46;43.74;101264.75;7397301;19;1851;-41
2023/10/16 14:44:07;;;;;;;;;;;;;;;22.41;43.70;101267.88;7397064;19;1789;-41
2023/10/16 14:46:36;;;;;;;;;;;;;;;;;;7395861;19;1906;-41
2023/10/16 14:49:08;;;;;;;;;;;;;;;22.33;44.02;101268.63;7395930;19;1492;-41
2023/10/16 14:51:37;;;;;;;;;;;;;;;22.32;43.97;101268.75;7394924;19;1377;-41
2023/10/16 14:54:06;;;;;;;;;;;;;;;22.30;44.04;101271.59;7396532;19;1532;-42